X  Blizu METAR Podaci o vazduhoplovstvu     LGRX Patras Araxos Agamemnon Airport
Temperatura
59°F Temperatura
54°F Tačka Rose
82% Vlaga



Vetar
6 MPS
10 KM/S
3 M/S
5 Čvorovi



190°
J
Trenutna situacija

Delimično oblačno Delimično oblačno
Vazdušni pritisak 1018.96 (hPa) - 30.09 (inHg)
Vidljivost 6 (Milje) - 9.7 (km)
Aerodrom
Aerodromski kod. LGRX

Lokacija: Patras Araxos Agamemnon Airport
Udaljenost: 108 (mi)

Metar:
LGRX 230720Z 19005KT 9999 FEW015 SCT030 BKN060 15/12 Q1019

Vreme: 23-02-2024 09:20 EET